Stations météo

réclame
Mon MeteoGroup
Aix en Provence, France (7654): Température de l'air & dewpoint: 14.06.2018 07:00:00 - 20.06.2018 07:00:00 (CEST)Aix en Provence, France (7654): Vitesse du vent & gusts: 14.06.2018 07:00:00 - 20.06.2018 07:00:00 (CEST)Aix en Provence, France (7654): Direction du vent: 14.06.2018 07:00:00 - 20.06.2018 07:00:00 (CEST)Aix en Provence, France (7654): Quantités de précipitations: 14.06.2018 07:00:00 - 20.06.2018 07:00:00 (CEST)
Date & Time tt [°C] td [°C] ff [km/h] ff [knt] fx [km/h] fx [knt] dd rr [mm]
20.06.2018 07:00:00 - - - - - - - -
20.06.2018 06:00:00 17,9 15,7 0 0 4 2 N 0,0
20.06.2018 05:00:00 18,5 15,9 0 0 8 4 N 0,0
20.06.2018 04:00:00 18,9 15,9 0 0 8 4 N 0,0
20.06.2018 03:00:00 19,1 16,1 0 0 2 1 N 0,0
20.06.2018 02:00:00 19,7 16,2 0 0 4 2 N -
20.06.2018 01:00:00 20,7 16,3 2 1 4 2 NNE 0,0
20.06.2018 00:00:00 21,5 16,7 0 0 4 2 N 0,0
19.06.2018 23:00:00 23,3 16,8 0 0 9 5 N 0,0
19.06.2018 22:00:00 25,4 15,7 4 2 11 6 W 0,0
19.06.2018 21:00:00 27,8 15,8 4 2 16 9 W 0,0
19.06.2018 20:00:00 30,1 15,4 11 6 22 12 WNW -
19.06.2018 19:00:00 31,2 14,4 11 6 28 15 WSW 0,0
19.06.2018 18:00:00 31,6 14,7 11 6 31 17 WSW 0,0
19.06.2018 17:00:00 32,1 13,8 9 5 28 15 WSW 0,0
19.06.2018 16:00:00 30,7 15,2 13 7 26 14 SSW 0,0
19.06.2018 15:00:00 31,8 15,7 11 6 26 14 WNW 0,0
19.06.2018 14:00:00 31,4 16,9 9 5 21 11 W -
19.06.2018 13:00:00 30,9 15,7 9 5 18 10 S 0,0
19.06.2018 12:00:00 30,5 15,4 5 3 16 9 E 0,0
19.06.2018 11:00:00 29,0 16,2 5 3 13 7 E 0,0
19.06.2018 10:00:00 27,3 16,0 4 2 15 8 NE 0,0
19.06.2018 09:00:00 24,5 15,4 5 3 16 9 NNE 0,0
19.06.2018 08:00:00 22,5 14,6 4 2 18 10 E -
19.06.2018 07:00:00 20,1 14,2 8 4 16 9 E 0,0
19.06.2018 06:00:00 17,0 14,1 0 0 8 4 N 0,0
19.06.2018 05:00:00 16,8 13,9 0 0 5 3 N 0,0
19.06.2018 04:00:00 17,0 14,3 0 0 5 3 N 0,0
19.06.2018 03:00:00 17,8 14,1 0 0 5 3 N 0,0
19.06.2018 02:00:00 18,5 14,0 4 2 11 6 S -
19.06.2018 01:00:00 - - - - - - - -
19.06.2018 00:00:00 20,1 13,8 4 2 8 4 NNW 0,0
18.06.2018 23:00:00 21,2 13,9 0 0 11 6 N 0,0
18.06.2018 22:00:00 23,2 13,4 5 3 16 9 W 0,0
18.06.2018 21:00:00 25,0 13,2 8 4 18 10 WNW 0,0
18.06.2018 20:00:00 27,7 14,0 9 5 22 12 WNW -
18.06.2018 19:00:00 28,5 14,0 11 6 26 14 NW 0,0
18.06.2018 18:00:00 29,1 13,7 13 7 28 15 WNW 0,0
18.06.2018 17:00:00 29,9 13,6 11 6 26 14 W 0,0
18.06.2018 16:00:00 29,2 13,8 11 6 28 15 NW 0,0
18.06.2018 15:00:00 29,3 15,1 15 8 28 15 WNW 0,0
18.06.2018 14:00:00 28,7 14,1 11 6 26 14 W -
18.06.2018 13:00:00 27,8 14,4 11 6 29 16 W 0,0
18.06.2018 12:00:00 26,8 13,9 9 5 21 11 WNW 0,0
18.06.2018 11:00:00 24,8 13,0 8 4 22 12 NNW 0,0
18.06.2018 10:00:00 23,7 13,8 9 5 18 10 WNW 0,0
18.06.2018 09:00:00 21,7 12,5 4 2 9 5 NNW 0,0
18.06.2018 08:00:00 19,1 12,1 4 2 8 4 WNW -
18.06.2018 07:00:00 16,2 12,0 0 0 4 2 N 0,0
18.06.2018 06:00:00 14,9 11,7 4 2 5 3 NNE 0,0
18.06.2018 05:00:00 15,3 11,5 0 0 8 4 N 0,0
18.06.2018 04:00:00 16,2 12,0 2 1 8 4 NNE 0,0
18.06.2018 03:00:00 16,8 12,1 0 0 8 4 N 0,0
18.06.2018 02:00:00 17,5 13,0 0 0 8 4 N -
18.06.2018 01:00:00 18,6 12,1 2 1 4 2 SSE 0,0
18.06.2018 00:00:00 20,0 12,2 2 1 9 5 WNW 0,0
17.06.2018 23:00:00 20,0 12,5 2 1 8 4 SW 0,0
17.06.2018 22:00:00 21,8 12,6 4 2 16 9 W 0,0
17.06.2018 21:00:00 23,3 12,9 9 5 24 13 WNW 0,0
17.06.2018 20:00:00 25,1 13,6 11 6 24 13 NW -
17.06.2018 19:00:00 25,7 14,5 13 7 35 19 WNW 0,0
17.06.2018 18:00:00 26,9 14,6 16 9 41 22 NW 0,0
17.06.2018 17:00:00 26,9 15,0 18 10 41 22 WNW 0,0
17.06.2018 16:00:00 28,1 14,7 16 9 34 18 W 0,0
17.06.2018 15:00:00 28,2 15,5 15 8 29 16 WNW 0,0
17.06.2018 14:00:00 28,5 16,1 9 5 24 13 WNW -
17.06.2018 13:00:00 28,1 15,4 11 6 28 15 WNW 0,0
17.06.2018 12:00:00 26,7 16,0 9 5 24 13 WNW 0,0
17.06.2018 11:00:00 25,8 15,2 8 4 18 10 W 0,0
17.06.2018 10:00:00 24,1 15,6 5 3 15 8 W 0,0
17.06.2018 09:00:00 22,1 15,2 2 1 9 5 SSW 0,0
17.06.2018 08:00:00 20,4 14,5 2 1 5 3 SW -
17.06.2018 07:00:00 17,3 14,0 0 0 8 4 N 0,0
17.06.2018 06:00:00 15,6 13,4 0 0 5 3 N 0,0
17.06.2018 05:00:00 16,5 13,8 0 0 4 2 N 0,0
17.06.2018 04:00:00 17,9 13,6 0 0 13 7 N 0,0
17.06.2018 03:00:00 18,7 13,8 2 1 8 4 E 0,0
17.06.2018 02:00:00 19,3 13,9 4 2 9 5 N -
17.06.2018 01:00:00 19,5 13,9 4 2 9 5 SE 0,0
17.06.2018 00:00:00 19,3 13,9 2 1 5 3 S 0,0
16.06.2018 23:00:00 20,5 14,6 0 0 8 4 N 0,0
16.06.2018 22:00:00 22,3 14,4 2 1 8 4 N 0,0
16.06.2018 21:00:00 24,6 12,9 5 3 16 9 W 0,0
16.06.2018 20:00:00 25,9 12,7 8 4 21 11 W -
16.06.2018 19:00:00 27,9 10,6 9 5 28 15 WNW 0,0
16.06.2018 18:00:00 29,2 12,2 15 8 29 16 NW 0,0
16.06.2018 17:00:00 28,8 13,5 15 8 31 17 WNW 0,0
16.06.2018 16:00:00 28,6 14,1 13 7 28 15 W 0,0
16.06.2018 15:00:00 29,0 14,8 11 6 29 16 W 0,0
16.06.2018 14:00:00 30,0 14,5 15 8 29 16 SW -
16.06.2018 13:00:00 29,0 14,0 9 5 22 12 SSW 0,0
16.06.2018 12:00:00 28,1 13,6 9 5 22 12 SSE 0,0
16.06.2018 11:00:00 27,3 12,9 8 4 26 14 E 0,0
16.06.2018 10:00:00 25,7 15,1 2 1 11 6 S 0,0
16.06.2018 09:00:00 23,4 14,9 4 2 11 6 NE 0,0
16.06.2018 08:00:00 20,0 14,4 5 3 9 5 S -
16.06.2018 07:00:00 18,2 13,5 4 2 11 6 SE 0,0
16.06.2018 06:00:00 14,9 13,1 0 0 5 3 N 0,0
16.06.2018 05:00:00 15,5 13,3 0 0 4 2 N 0,0
16.06.2018 04:00:00 16,4 13,3 4 2 8 4 S 0,0
16.06.2018 03:00:00 17,4 13,7 0 0 4 2 N 0,0
16.06.2018 02:00:00 17,0 13,5 4 2 5 3 NNE -
16.06.2018 01:00:00 17,3 13,6 0 0 5 3 N 0,0
16.06.2018 00:00:00 18,0 13,7 2 1 4 2 NE 0,0
15.06.2018 23:00:00 20,0 13,7 2 1 11 6 NNE 0,0
15.06.2018 22:00:00 22,0 12,8 4 2 18 10 W 0,0
15.06.2018 21:00:00 23,9 12,8 11 6 24 13 WNW 0,0
15.06.2018 20:00:00 26,5 12,2 11 6 24 13 NW -
15.06.2018 19:00:00 28,0 11,9 11 6 24 13 WNW 0,0
15.06.2018 18:00:00 28,2 12,1 13 7 28 15 WNW 0,0
15.06.2018 17:00:00 28,3 13,0 11 6 28 15 WNW 0,0
15.06.2018 16:00:00 28,5 14,0 8 4 26 14 W 0,0
15.06.2018 15:00:00 27,3 12,9 9 5 28 15 W 0,0
15.06.2018 14:00:00 28,1 12,4 11 6 24 13 WNW -
15.06.2018 13:00:00 28,3 12,6 8 4 22 12 W 0,0
15.06.2018 12:00:00 27,2 13,2 5 3 11 6 SSW 0,0
15.06.2018 11:00:00 25,0 13,5 4 2 15 8 N 0,0
15.06.2018 10:00:00 23,5 13,9 4 2 11 6 SE 0,0
15.06.2018 09:00:00 19,7 13,2 4 2 9 5 S 0,0
15.06.2018 08:00:00 17,4 12,7 4 2 13 7 W -
15.06.2018 07:00:00 16,4 12,6 0 0 5 3 N 0,0
15.06.2018 06:00:00 14,7 12,2 0 0 4 2 N 0,0
15.06.2018 05:00:00 15,5 12,1 0 0 5 3 N 0,0
15.06.2018 04:00:00 16,3 11,4 0 0 8 4 N 0,0
15.06.2018 03:00:00 16,2 12,2 4 2 8 4 N 0,0
15.06.2018 02:00:00 16,7 12,4 2 1 5 3 WSW -
15.06.2018 01:00:00 17,5 12,6 4 2 8 4 N 0,0
15.06.2018 00:00:00 18,2 12,4 2 1 4 2 NW 0,0
14.06.2018 23:00:00 19,7 11,7 0 0 8 4 N 0,0
14.06.2018 22:00:00 20,3 11,8 0 0 18 10 N 0,0
14.06.2018 21:00:00 21,7 12,0 9 5 26 14 NW 0,0
14.06.2018 20:00:00 24,8 12,1 13 7 24 13 WNW -
14.06.2018 19:00:00 26,0 11,7 8 4 24 13 WNW 0,0
14.06.2018 18:00:00 26,2 11,1 9 5 26 14 WNW 0,0
14.06.2018 17:00:00 26,4 11,3 13 7 26 14 WNW 0,0
14.06.2018 16:00:00 26,2 11,9 13 7 29 16 WNW 0,0
14.06.2018 15:00:00 26,2 12,3 11 6 26 14 WSW 0,0
14.06.2018 14:00:00 25,6 12,4 11 6 22 12 WNW -
14.06.2018 13:00:00 24,9 12,8 8 4 28 15 WNW 0,0
14.06.2018 12:00:00 23,7 13,6 11 6 24 13 W 0,0
14.06.2018 11:00:00 22,6 12,5 8 4 18 10 W 0,0
14.06.2018 10:00:00 20,9 13,3 5 3 13 7 WSW 0,0
14.06.2018 09:00:00 18,8 12,5 4 2 9 5 WSW 0,0
14.06.2018 08:00:00 17,1 12,0 0 0 4 2 N -
14.06.2018 07:00:00 14,2 12,1 2 1 4 2 S 0,0

tt = Température de l'air
td = dewpoint
ff = Vitesse du vent
fx = gusts
dd = Direction du vent
rr = Quantités de précipitations

stations d'obs. à proximité